Time,TemperatureF,DewpointF,PressureIn,WindDirection,WindDirectionDegrees,WindSpeedMPH,WindSpeedGustMPH,Humidity,HourlyPrecipIn,Conditions,Clouds,dailyrainin,SoftwareType,DateUTC
2013-05-27 00:00:00,64.3,60.0,30.11,SSW,199,0.0,-999.0,87,-99.99,,,0.00,weatherlink.com 1.10,2013-05-27 05:00:00,
2013-05-27 00:14:00,63.9,60.0,30.10,SSW,199,0.0,-999.0,87,-99.99,,,0.00,weatherlink.com 1.10,2013-05-27 05:14:00,
2013-05-27 00:29:00,63.8,60.0,30.10,SSW,199,0.0,-999.0,87,-99.99,,,0.00,weatherlink.com 1.10,2013-05-27 05:29:00,
2013-05-27 00:44:00,63.4,60.0,30.09,SSW,199,0.0,-999.0,88,-99.99,,,0.00,weatherlink.com 1.10,2013-05-27 05:44:00,
2013-05-27 00:59:00,63.0,59.0,30.09,SSW,199,0.0,-999.0,88,-99.99,,,0.00,weatherlink.com 1.10,2013-05-27 05:59:00,
2013-05-27 01:14:00,62.7,60.0,30.10,SSW,199,0.0,-999.0,89,-99.99,,,0.00,weatherlink.com 1.10,2013-05-27 06:14:00,
2013-05-27 01:29:00,62.6,60.0,30.09,SSW,199,0.0,-999.0,90,-99.99,,,0.00,weatherlink.com 1.10,2013-05-27 06:29:00,
2013-05-27 01:44:00,62.2,59.0,30.09,SSW,199,0.0,-999.0,90,-99.99,,,0.00,weatherlink.com 1.10,2013-05-27 06:44:00,
2013-05-27 02:00:00,61.7,59.0,30.09,SSW,199,0.0,-999.0,89,-99.99,,,0.00,weatherlink.com 1.10,2013-05-27 07:00:00,
2013-05-27 02:14:00,61.4,59.0,30.09,SSW,199,0.0,-999.0,90,-99.99,,,0.00,weatherlink.com 1.10,2013-05-27 07:14:00,
2013-05-27 02:29:00,60.8,58.0,30.09,SSW,199,0.0,-999.0,90,-99.99,,,0.00,weatherlink.com 1.10,2013-05-27 07:29:00,
2013-05-27 02:45:00,60.9,58.0,30.09,SSW,199,0.0,-999.0,91,-99.99,,,0.00,weatherlink.com 1.10,2013-05-27 07:45:00,
2013-05-27 02:59:00,60.5,58.0,30.09,SSW,199,0.0,-999.0,91,-99.99,,,0.00,weatherlink.com 1.10,2013-05-27 07:59:00,
2013-05-27 03:14:00,60.5,58.0,30.09,SSW,199,0.0,-999.0,91,-99.99,,,0.00,weatherlink.com 1.10,2013-05-27 08:14:00,
2013-05-27 03:29:00,60.2,57.0,30.09,SSW,199,0.0,-999.0,90,-99.99,,,0.00,weatherlink.com 1.10,2013-05-27 08:29:00,
2013-05-27 03:44:00,60.0,57.0,30.09,SSW,199,0.0,-999.0,91,-99.99,,,0.00,weatherlink.com 1.10,2013-05-27 08:44:00,
2013-05-27 03:59:00,60.0,57.0,30.09,SSW,199,0.0,-999.0,91,-99.99,,,0.00,weatherlink.com 1.10,2013-05-27 08:59:00,
2013-05-27 04:14:00,60.4,58.0,30.10,SSW,199,0.0,-999.0,92,-99.99,,,0.00,weatherlink.com 1.10,2013-05-27 09:14:00,
2013-05-27 04:29:00,60.5,59.0,30.10,SSW,199,0.0,-999.0,93,-99.99,,,0.00,weatherlink.com 1.10,2013-05-27 09:29:00,
2013-05-27 04:44:00,60.6,59.0,30.11,SSW,199,0.0,-999.0,93,-99.99,,,0.00,weatherlink.com 1.10,2013-05-27 09:44:00,
2013-05-27 04:59:00,60.6,59.0,30.11,SSW,199,0.0,-999.0,93,-99.99,,,0.00,weatherlink.com 1.10,2013-05-27 09:59:00,
2013-05-27 05:14:00,60.6,59.0,30.11,SSW,199,0.0,-999.0,93,-99.99,,,0.00,weatherlink.com 1.10,2013-05-27 10:14:00,
2013-05-27 05:30:00,60.4,58.0,30.11,SSW,199,0.0,-999.0,93,-99.99,,,0.00,weatherlink.com 1.10,2013-05-27 10:30:00,
2013-05-27 05:44:00,60.1,58.0,30.12,SSW,199,0.0,-999.0,92,-99.99,,,0.00,weatherlink.com 1.10,2013-05-27 10:44:00,
2013-05-27 05:59:00,60.0,58.0,30.13,SSW,199,0.0,-999.0,93,-99.99,,,0.00,weatherlink.com 1.10,2013-05-27 10:59:00,
2013-05-27 06:14:00,60.2,58.0,30.14,SSW,199,0.0,-999.0,92,-99.99,,,0.00,weatherlink.com 1.10,2013-05-27 11:14:00,
2013-05-27 06:29:00,61.4,59.0,30.15,SSW,199,0.0,-999.0,93,-99.99,,,0.00,weatherlink.com 1.10,2013-05-27 11:29:00,
2013-05-27 06:44:00,62.3,60.0,30.15,SW,232,0.0,-999.0,91,-99.99,,,0.00,weatherlink.com 1.10,2013-05-27 11:44:00,
2013-05-27 06:59:00,63.6,60.0,30.15,SW,232,0.0,-999.0,89,-99.99,,,0.00,weatherlink.com 1.10,2013-05-27 11:59:00,
2013-05-27 07:14:00,65.5,62.0,30.14,SW,232,0.0,-999.0,87,-99.99,,,0.00,weatherlink.com 1.10,2013-05-27 12:14:00,
2013-05-27 07:29:00,66.9,62.0,30.15,WSW,237,0.0,-999.0,83,-99.99,,,0.00,weatherlink.com 1.10,2013-05-27 12:29:00,
2013-05-27 07:44:00,66.7,62.0,30.15,West,269,0.0,-999.0,84,-99.99,,,0.00,weatherlink.com 1.10,2013-05-27 12:44:00,
2013-05-27 07:59:00,67.1,62.0,30.15,West,277,0.0,-999.0,83,-99.99,,,0.00,weatherlink.com 1.10,2013-05-27 12:59:00,
2013-05-27 08:15:00,68.3,62.0,30.14,West,277,0.0,-999.0,80,-99.99,,,0.00,weatherlink.com 1.10,2013-05-27 13:15:00,
2013-05-27 08:29:00,68.9,63.0,30.14,West,277,0.0,-999.0,80,-99.99,,,0.00,weatherlink.com 1.10,2013-05-27 13:29:00,
2013-05-27 08:44:00,69.5,61.0,30.13,North,360,4.0,-999.0,75,-99.99,,,0.00,weatherlink.com 1.10,2013-05-27 13:44:00,
2013-05-27 08:59:00,70.3,62.0,30.14,NNW,348,4.0,-999.0,76,-99.99,,,0.00,weatherlink.com 1.10,2013-05-27 13:59:00,
2013-05-27 09:14:00,70.5,62.0,30.14,NNW,348,0.0,-999.0,75,-99.99,,,0.00,weatherlink.com 1.10,2013-05-27 14:14:00,
2013-05-27 09:29:00,71.9,63.0,30.13,NNW,347,1.0,-999.0,73,-99.99,,,0.00,weatherlink.com 1.10,2013-05-27 14:29:00,
2013-05-27 09:44:00,72.4,64.0,30.12,NNW,342,6.0,-999.0,74,-99.99,,,0.00,weatherlink.com 1.10,2013-05-27 14:44:00,
2013-05-27 09:59:00,72.2,64.0,30.12,NNW,342,2.0,-999.0,75,-99.99,,,0.00,weatherlink.com 1.10,2013-05-27 14:59:00,
2013-05-27 10:14:00,73.3,64.0,30.11,NNW,329,0.0,-999.0,73,-99.99,,,0.00,weatherlink.com 1.10,2013-05-27 15:14:00,
2013-05-27 10:29:00,75.7,65.0,30.11,NNW,331,2.0,-999.0,70,-99.99,,,0.00,weatherlink.com 1.10,2013-05-27 15:29:00,
2013-05-27 10:44:00,77.3,65.0,30.11,NNW,333,1.0,-999.0,67,-99.99,,,0.00,weatherlink.com 1.10,2013-05-27 15:44:00,
2013-05-27 11:00:00,79.5,63.0,30.10,SSW,199,1.0,-999.0,57,-99.99,,,0.00,weatherlink.com 1.10,2013-05-27 16:00:00,
2013-05-27 11:14:00,81.6,66.0,30.10,NW,320,0.0,-999.0,60,-99.99,,,0.00,weatherlink.com 1.10,2013-05-27 16:14:00,
2013-05-27 11:29:00,82.3,63.0,30.10,South,183,0.0,-999.0,53,-99.99,,,0.00,weatherlink.com 1.10,2013-05-27 16:29:00,
2013-05-27 11:44:00,82.2,64.0,30.10,WSW,245,8.0,-999.0,55,-99.99,,,0.00,weatherlink.com 1.10,2013-05-27 16:44:00,
2013-05-27 11:59:00,81.8,65.0,30.10,SW,232,6.0,-999.0,57,-99.99,,,0.00,weatherlink.com 1.10,2013-05-27 16:59:00,
2013-05-27 12:14:00,81.8,65.0,30.09,SSW,204,1.0,-999.0,57,-99.99,,,0.00,weatherlink.com 1.10,2013-05-27 17:14:00,
2013-05-27 12:29:00,82.3,63.0,30.08,SW,223,7.0,-999.0,52,-99.99,,,0.00,weatherlink.com 1.10,2013-05-27 17:29:00,
2013-05-27 12:44:00,82.9,64.0,30.07,South,175,0.0,-999.0,53,-99.99,,,0.00,weatherlink.com 1.10,2013-05-27 17:44:00,
2013-05-27 12:59:00,82.7,64.0,30.07,SW,215,0.0,-999.0,54,-99.99,,,0.00,weatherlink.com 1.10,2013-05-27 17:59:00,
2013-05-27 13:14:00,83.3,62.0,30.07,SSE,155,5.0,-999.0,49,-99.99,,,0.00,weatherlink.com 1.10,2013-05-27 18:14:00,
2013-05-27 13:29:00,83.8,61.0,30.07,SW,234,12.0,-999.0,47,-99.99,,,0.00,weatherlink.com 1.10,2013-05-27 18:29:00,
2013-05-27 13:45:00,84.1,61.0,30.06,WSW,252,0.0,-999.0,46,-99.99,,,0.00,weatherlink.com 1.10,2013-05-27 18:45:00,
2013-05-27 13:59:00,83.7,61.0,30.06,WSW,253,2.0,-999.0,47,-99.99,,,0.00,weatherlink.com 1.10,2013-05-27 18:59:00,
2013-05-27 14:14:00,83.4,62.0,30.05,SW,215,6.0,-999.0,48,-99.99,,,0.00,weatherlink.com 1.10,2013-05-27 19:14:00,
2013-05-27 14:29:00,83.9,62.0,30.05,SW,217,7.0,-999.0,48,-99.99,,,0.00,weatherlink.com 1.10,2013-05-27 19:29:00,
2013-05-27 14:44:00,83.7,62.0,30.05,SSW,192,3.0,-999.0,48,-99.99,,,0.00,weatherlink.com 1.10,2013-05-27 19:44:00,
2013-05-27 14:59:00,84.4,63.0,30.05,SSE,154,3.0,-999.0,48,-99.99,,,0.00,weatherlink.com 1.10,2013-05-27 19:59:00,
2013-05-27 15:14:00,85.2,63.0,30.05,SSW,211,10.0,-999.0,47,-99.99,,,0.00,weatherlink.com 1.10,2013-05-27 20:14:00,
2013-05-27 15:29:00,85.2,62.0,30.04,SSW,197,13.0,-999.0,46,-99.99,,,0.00,weatherlink.com 1.10,2013-05-27 20:29:00,
2013-05-27 15:44:00,84.8,62.0,30.04,SSW,211,4.0,-999.0,47,-99.99,,,0.00,weatherlink.com 1.10,2013-05-27 20:44:00,
2013-05-27 15:59:00,84.9,61.0,30.04,SSW,201,5.0,-999.0,45,-99.99,,,0.00,weatherlink.com 1.10,2013-05-27 20:59:00,
2013-05-27 16:14:00,84.6,62.0,30.04,SW,216,4.0,-999.0,46,-99.99,,,0.00,weatherlink.com 1.10,2013-05-27 21:14:00,
2013-05-27 16:30:00,84.9,62.0,30.04,SSW,197,0.0,-999.0,46,-99.99,,,0.00,weatherlink.com 1.10,2013-05-27 21:30:00,
2013-05-27 16:44:00,85.0,62.0,30.04,SW,226,5.0,-999.0,46,-99.99,,,0.00,weatherlink.com 1.10,2013-05-27 21:44:00,
2013-05-27 16:59:00,83.4,62.0,30.03,SW,223,0.0,-999.0,48,-99.99,,,0.00,weatherlink.com 1.10,2013-05-27 21:59:00,
2013-05-27 17:14:00,82.3,61.0,30.03,SSE,157,0.0,-999.0,49,-99.99,,,0.00,weatherlink.com 1.10,2013-05-27 22:14:00,
2013-05-27 17:29:00,81.8,62.0,30.03,SSE,147,0.0,-999.0,51,-99.99,,,0.00,weatherlink.com 1.10,2013-05-27 22:29:00,
2013-05-27 17:44:00,82.0,63.0,30.03,SSE,148,0.0,-999.0,53,-99.99,,,0.00,weatherlink.com 1.10,2013-05-27 22:44:00,
2013-05-27 17:59:00,81.4,64.0,30.03,South,170,0.0,-999.0,55,-99.99,,,0.00,weatherlink.com 1.10,2013-05-27 22:59:00,
2013-05-27 18:14:00,81.2,63.0,30.03,SSE,167,0.0,-999.0,55,-99.99,,,0.00,weatherlink.com 1.10,2013-05-27 23:14:00,
2013-05-27 18:29:00,81.2,63.0,30.02,SW,215,0.0,-999.0,55,-99.99,,,0.00,weatherlink.com 1.10,2013-05-27 23:29:00,
2013-05-27 18:44:00,81.0,64.0,30.02,SE,143,0.0,-999.0,56,-99.99,,,0.00,weatherlink.com 1.10,2013-05-27 23:44:00,
2013-05-27 18:59:00,81.0,64.0,30.02,SE,142,0.0,-999.0,56,-99.99,,,0.00,weatherlink.com 1.10,2013-05-27 23:59:00,
2013-05-27 19:15:00,80.0,64.0,30.02,SE,142,0.0,-999.0,59,-99.99,,,0.00,weatherlink.com 1.10,2013-05-28 00:15:00,
2013-05-27 19:29:00,78.9,65.0,30.02,SE,142,0.0,-999.0,62,-99.99,,,0.00,weatherlink.com 1.10,2013-05-28 00:29:00,
2013-05-27 19:44:00,76.9,63.0,30.02,SE,142,0.0,-999.0,63,-99.99,,,0.00,weatherlink.com 1.10,2013-05-28 00:44:00,
2013-05-27 19:59:00,75.2,63.0,30.02,SE,142,0.0,-999.0,66,-99.99,,,0.00,weatherlink.com 1.10,2013-05-28 00:59:00,
2013-05-27 20:14:00,74.2,63.0,30.02,SE,142,0.0,-999.0,67,-99.99,,,0.00,weatherlink.com 1.10,2013-05-28 01:14:00,
2013-05-27 20:29:00,73.5,62.0,30.02,SE,142,0.0,-999.0,68,-99.99,,,0.00,weatherlink.com 1.10,2013-05-28 01:29:00,
2013-05-27 20:44:00,73.1,62.0,30.02,SE,142,0.0,-999.0,69,-99.99,,,0.00,weatherlink.com 1.10,2013-05-28 01:44:00,
2013-05-27 20:59:00,72.7,62.0,30.02,SE,142,0.0,-999.0,69,-99.99,,,0.00,weatherlink.com 1.10,2013-05-28 01:59:00,
2013-05-27 21:14:00,72.4,63.0,30.03,SE,142,0.0,-999.0,71,-99.99,,,0.00,weatherlink.com 1.10,2013-05-28 02:14:00,
2013-05-27 21:29:00,71.5,63.0,30.03,SE,142,0.0,-999.0,74,-99.99,,,0.00,weatherlink.com 1.10,2013-05-28 02:29:00,
2013-05-27 21:44:00,70.6,62.0,30.03,SE,142,0.0,-999.0,75,-99.99,,,0.00,weatherlink.com 1.10,2013-05-28 02:44:00,
2013-05-27 22:00:00,70.1,62.0,30.04,SE,142,0.0,-999.0,76,-99.99,,,0.00,weatherlink.com 1.10,2013-05-28 03:00:00,
2013-05-27 22:14:00,70.1,63.0,30.04,SE,142,0.0,-999.0,78,-99.99,,,0.00,weatherlink.com 1.10,2013-05-28 03:14:00,
2013-05-27 22:29:00,70.1,63.0,30.04,SE,142,0.0,-999.0,78,-99.99,,,0.00,weatherlink.com 1.10,2013-05-28 03:29:00,
2013-05-27 22:44:00,70.1,63.0,30.04,SE,142,0.0,-999.0,78,-99.99,,,0.00,weatherlink.com 1.10,2013-05-28 03:44:00,
2013-05-27 22:59:00,70.0,63.0,30.05,SE,142,0.0,-999.0,79,-99.99,,,0.00,weatherlink.com 1.10,2013-05-28 03:59:00,
2013-05-27 23:14:00,69.6,62.0,30.05,SE,142,0.0,-999.0,78,-99.99,,,0.00,weatherlink.com 1.10,2013-05-28 04:14:00,
2013-05-27 23:29:00,69.2,62.0,30.04,SE,142,0.0,-999.0,79,-99.99,,,0.00,weatherlink.com 1.10,2013-05-28 04:29:00,
2013-05-27 23:44:00,68.7,63.0,30.04,SE,142,0.0,-999.0,82,-99.99,,,0.00,weatherlink.com 1.10,2013-05-28 04:44:00,
2013-05-27 23:59:00,68.1,63.0,30.04,SE,142,0.0,-999.0,83,-99.99,,,0.00,weatherlink.com 1.10,2013-05-28 04:59:00,